sensor_id;sensor_type;location;lat;lon;timestamp;temperature;humidity
10441;DHT22;5268;49.346;9.522;2023-08-17T03:08:40;21.10;99.90
10441;DHT22;5268;49.346;9.522;2023-08-17T03:13:42;21.10;99.90
10441;DHT22;5268;49.346;9.522;2023-08-17T03:18:43;21.00;99.90
10441;DHT22;5268;49.346;9.522;2023-08-17T03:23:47;21.00;99.90
10441;DHT22;5268;49.346;9.522;2023-08-17T03:28:49;20.90;99.90
10441;DHT22;5268;49.346;9.522;2023-08-17T03:33:51;20.90;99.90
10441;DHT22;5268;49.346;9.522;2023-08-17T03:38:54;20.90;99.90
10441;DHT22;5268;49.346;9.522;2023-08-17T03:43:56;20.90;99.90
10441;DHT22;5268;49.346;9.522;2023-08-17T03:48:58;20.80;99.90
10441;DHT22;5268;49.346;9.522;2023-08-17T03:54:02;20.80;99.90
10441;DHT22;5268;49.346;9.522;2023-08-17T03:59:04;20.80;99.90
10441;DHT22;5268;49.346;9.522;2023-08-17T04:04:06;20.70;99.90
10441;DHT22;5268;49.346;9.522;2023-08-17T04:09:10;20.70;99.90
10441;DHT22;5268;49.346;9.522;2023-08-17T04:14:13;20.70;99.90
10441;DHT22;5268;49.346;9.522;2023-08-17T04:19:15;20.60;99.90
10441;DHT22;5268;49.346;9.522;2023-08-17T04:24:18;20.60;99.90
10441;DHT22;5268;49.346;9.522;2023-08-17T04:29:20;20.50;99.90
10441;DHT22;5268;49.346;9.522;2023-08-17T04:34:22;20.50;99.90
10441;DHT22;5268;49.346;9.522;2023-08-17T04:39:26;20.50;99.90
10441;DHT22;5268;49.346;9.522;2023-08-17T04:44:28;20.50;99.90
10441;DHT22;5268;49.346;9.522;2023-08-17T04:49:30;20.50;99.90
10441;DHT22;5268;49.346;9.522;2023-08-17T04:54:33;20.60;99.90
10441;DHT22;5268;49.346;9.522;2023-08-17T04:59:36;20.60;99.90
10441;DHT22;5268;49.346;9.522;2023-08-17T05:04:38;20.70;99.90
10441;DHT22;5268;49.346;9.522;2023-08-17T05:09:41;20.70;99.90
10441;DHT22;5268;49.346;9.522;2023-08-17T05:14:43;20.70;99.90
10441;DHT22;5268;49.346;9.522;2023-08-17T05:19:45;20.80;99.90
10441;DHT22;5268;49.346;9.522;2023-08-17T05:24:49;20.80;99.90
10441;DHT22;5268;49.346;9.522;2023-08-17T05:29:51;20.80;99.90
10441;DHT22;5268;49.346;9.522;2023-08-17T05:34:53;20.70;99.90
10441;DHT22;5268;49.346;9.522;2023-08-17T05:39:56;20.80;99.90
10441;DHT22;5268;49.346;9.522;2023-08-17T05:44:58;20.80;99.90
10441;DHT22;5268;49.346;9.522;2023-08-17T05:50:00;20.80;99.90
10441;DHT22;5268;49.346;9.522;2023-08-17T05:56:05;20.90;99.90
10441;DHT22;5268;49.346;9.522;2023-08-17T06:01:07;21.00;99.90
10441;DHT22;5268;49.346;9.522;2023-08-17T06:06:10;21.00;99.90
10441;DHT22;5268;49.346;9.522;2023-08-17T06:11:13;21.00;99.90
10441;DHT22;5268;49.346;9.522;2023-08-17T06:16:15;21.10;99.90
10441;DHT22;5268;49.346;9.522;2023-08-17T06:21:17;21.20;99.90
10441;DHT22;5268;49.346;9.522;2023-08-17T06:26:21;21.30;99.90
10441;DHT22;5268;49.346;9.522;2023-08-17T06:31:23;21.30;99.90
10441;DHT22;5268;49.346;9.522;2023-08-17T06:36:31;21.40;99.90
10441;DHT22;5268;49.346;9.522;2023-08-17T06:41:34;21.40;99.90
10441;DHT22;5268;49.346;9.522;2023-08-17T06:46:36;21.50;99.90
10441;DHT22;5268;49.346;9.522;2023-08-17T06:51:38;21.60;99.90
10441;DHT22;5268;49.346;9.522;2023-08-17T06:56:41;21.80;99.90
10441;DHT22;5268;49.346;9.522;2023-08-17T07:01:44;21.90;99.90
10441;DHT22;5268;49.346;9.522;2023-08-17T07:06:46;22.00;99.90
10441;DHT22;5268;49.346;9.522;2023-08-17T07:11:51;22.00;99.90
10441;DHT22;5268;49.346;9.522;2023-08-17T07:16:53;22.20;99.90
10441;DHT22;5268;49.346;9.522;2023-08-17T07:21:55;22.40;99.90
10441;DHT22;5268;49.346;9.522;2023-08-17T07:26:58;22.60;99.90
10441;DHT22;5268;49.346;9.522;2023-08-17T07:32:00;22.80;99.90
10441;DHT22;5268;49.346;9.522;2023-08-17T07:37:04;22.90;99.90
10441;DHT22;5268;49.346;9.522;2023-08-17T07:42:08;23.10;99.90
10441;DHT22;5268;49.346;9.522;2023-08-17T07:47:10;23.30;99.90
10441;DHT22;5268;49.346;9.522;2023-08-17T07:52:12;23.60;99.90
10441;DHT22;5268;49.346;9.522;2023-08-17T07:57:15;24.10;99.90
10441;DHT22;5268;49.346;9.522;2023-08-17T08:02:17;24.40;99.90
10441;DHT22;5268;49.346;9.522;2023-08-17T08:07:19;24.70;99.90
10441;DHT22;5268;49.346;9.522;2023-08-17T08:12:23;25.00;99.90
10441;DHT22;5268;49.346;9.522;2023-08-17T08:17:26;25.30;99.90
10441;DHT22;5268;49.346;9.522;2023-08-17T08:22:28;25.60;99.90
10441;DHT22;5268;49.346;9.522;2023-08-17T08:27:31;25.80;99.90
10441;DHT22;5268;49.346;9.522;2023-08-17T08:32:33;26.20;99.90
10441;DHT22;5268;49.346;9.522;2023-08-17T08:37:35;26.60;99.90
10441;DHT22;5268;49.346;9.522;2023-08-17T08:42:38;26.90;99.90
10441;DHT22;5268;49.346;9.522;2023-08-17T08:47:42;27.30;99.90
10441;DHT22;5268;49.346;9.522;2023-08-17T08:52:50;27.70;99.90
10441;DHT22;5268;49.346;9.522;2023-08-17T08:58:01;27.90;99.90
10441;DHT22;5268;49.346;9.522;2023-08-17T09:03:04;28.00;99.90
10441;DHT22;5268;49.346;9.522;2023-08-17T09:08:08;28.20;99.90
10441;DHT22;5268;49.346;9.522;2023-08-17T09:13:13;28.30;99.90
10441;DHT22;5268;49.346;9.522;2023-08-17T09:18:16;28.50;99.90
10441;DHT22;5268;49.346;9.522;2023-08-17T09:23:20;28.70;99.90
10441;DHT22;5268;49.346;9.522;2023-08-17T09:28:24;29.00;99.90
10441;DHT22;5268;49.346;9.522;2023-08-17T09:33:28;29.00;99.90
10441;DHT22;5268;49.346;9.522;2023-08-17T09:38:30;29.10;99.90
10441;DHT22;5268;49.346;9.522;2023-08-17T09:43:34;29.10;99.90
10441;DHT22;5268;49.346;9.522;2023-08-17T09:48:37;29.40;99.90
10441;DHT22;5268;49.346;9.522;2023-08-17T09:53:39;29.60;99.90
10441;DHT22;5268;49.346;9.522;2023-08-17T09:58:42;29.80;99.90
10441;DHT22;5268;49.346;9.522;2023-08-17T10:03:44;30.00;99.90
10441;DHT22;5268;49.346;9.522;2023-08-17T10:08:47;30.20;99.90
10441;DHT22;5268;49.346;9.522;2023-08-17T10:13:57;30.30;99.90
10441;DHT22;5268;49.346;9.522;2023-08-17T10:19:08;30.10;99.90
10441;DHT22;5268;49.346;9.522;2023-08-17T10:24:13;30.20;99.90
10441;DHT22;5268;49.346;9.522;2023-08-17T10:29:17;30.30;99.90
10441;DHT22;5268;49.346;9.522;2023-08-17T10:34:20;30.60;99.90
10441;DHT22;5268;49.346;9.522;2023-08-17T10:39:23;30.90;99.90
10441;DHT22;5268;49.346;9.522;2023-08-17T10:44:43;31.20;99.90
10441;DHT22;5268;49.346;9.522;2023-08-17T10:49:45;31.40;99.90
10441;DHT22;5268;49.346;9.522;2023-08-17T10:54:49;31.60;99.90
10441;DHT22;5268;49.346;9.522;2023-08-17T11:00:16;31.70;99.90
10441;DHT22;5268;49.346;9.522;2023-08-17T11:05:41;31.90;99.90
10441;DHT22;5268;49.346;9.522;2023-08-17T11:10:47;32.00;99.90
10441;DHT22;5268;49.346;9.522;2023-08-17T11:15:51;32.10;99.90
10441;DHT22;5268;49.346;9.522;2023-08-17T11:20:54;32.20;99.90
10441;DHT22;5268;49.346;9.522;2023-08-17T11:25:57;32.20;99.90
10441;DHT22;5268;49.346;9.522;2023-08-17T11:31:03;32.10;99.90
10441;DHT22;5268;49.346;9.522;2023-08-17T11:36:08;31.90;99.90
10441;DHT22;5268;49.346;9.522;2023-08-17T11:41:11;31.90;99.90
10441;DHT22;5268;49.346;9.522;2023-08-17T11:46:15;32.00;99.90
10441;DHT22;5268;49.346;9.522;2023-08-17T11:51:27;32.10;99.90
10441;DHT22;5268;49.346;9.522;2023-08-17T11:56:29;32.10;99.90
10441;DHT22;5268;49.346;9.522;2023-08-17T12:01:34;32.10;99.90
10441;DHT22;5268;49.346;9.522;2023-08-17T12:06:42;32.10;99.90
10441;DHT22;5268;49.346;9.522;2023-08-17T12:11:45;32.20;99.90
10441;DHT22;5268;49.346;9.522;2023-08-17T12:16:49;32.30;99.90
10441;DHT22;5268;49.346;9.522;2023-08-17T12:21:51;32.10;99.90
10441;DHT22;5268;49.346;9.522;2023-08-17T12:26:57;32.10;99.90
10441;DHT22;5268;49.346;9.522;2023-08-17T12:32:01;32.00;99.90
10441;DHT22;5268;49.346;9.522;2023-08-17T12:37:03;32.00;99.90
10441;DHT22;5268;49.346;9.522;2023-08-17T12:42:05;31.40;99.90
10441;DHT22;5268;49.346;9.522;2023-08-17T12:47:10;31.30;99.90
10441;DHT22;5268;49.346;9.522;2023-08-17T12:52:12;31.50;99.90
10441;DHT22;5268;49.346;9.522;2023-08-17T12:57:14;31.70;99.90
10441;DHT22;5268;49.346;9.522;2023-08-17T13:02:17;31.80;99.90
10441;DHT22;5268;49.346;9.522;2023-08-17T13:07:19;31.90;99.90
10441;DHT22;5268;49.346;9.522;2023-08-17T13:12:21;31.90;99.90
10441;DHT22;5268;49.346;9.522;2023-08-17T13:17:25;31.80;99.90
10441;DHT22;5268;49.346;9.522;2023-08-17T13:22:27;31.80;99.90
10441;DHT22;5268;49.346;9.522;2023-08-17T13:27:29;31.80;99.90
10441;DHT22;5268;49.346;9.522;2023-08-17T13:32:32;31.70;99.90
10441;DHT22;5268;49.346;9.522;2023-08-17T13:37:36;31.60;99.90
10441;DHT22;5268;49.346;9.522;2023-08-17T13:42:38;31.50;99.90
10441;DHT22;5268;49.346;9.522;2023-08-17T13:47:41;31.40;99.90
10441;DHT22;5268;49.346;9.522;2023-08-17T13:52:45;31.30;99.90
10441;DHT22;5268;49.346;9.522;2023-08-17T13:57:47;31.20;99.90
10441;DHT22;5268;49.346;9.522;2023-08-17T14:02:51;31.20;99.90
10441;DHT22;5268;49.346;9.522;2023-08-17T14:07:53;31.10;99.90
10441;DHT22;5268;49.346;9.522;2023-08-17T14:12:54;31.00;99.90
10441;DHT22;5268;49.346;9.522;2023-08-17T14:17:58;30.90;99.90
10441;DHT22;5268;49.346;9.522;2023-08-17T14:23:00;30.90;99.90
10441;DHT22;5268;49.346;9.522;2023-08-17T14:28:04;30.70;99.90
10441;DHT22;5268;49.346;9.522;2023-08-17T14:33:09;30.50;99.90
10441;DHT22;5268;49.346;9.522;2023-08-17T14:38:11;30.30;99.90
10441;DHT22;5268;49.346;9.522;2023-08-17T14:43:14;30.10;99.90
10441;DHT22;5268;49.346;9.522;2023-08-17T14:48:18;30.00;99.90
10441;DHT22;5268;49.346;9.522;2023-08-17T14:53:20;29.90;99.90
10441;DHT22;5268;49.346;9.522;2023-08-17T14:58:22;29.90;99.90
10441;DHT22;5268;49.346;9.522;2023-08-17T15:03:25;29.80;99.90
10441;DHT22;5268;49.346;9.522;2023-08-17T15:08:27;29.80;99.90
10441;DHT22;5268;49.346;9.522;2023-08-17T15:13:29;29.80;99.90
10441;DHT22;5268;49.346;9.522;2023-08-17T15:18:33;29.70;99.90
10441;DHT22;5268;49.346;9.522;2023-08-17T15:23:35;29.70;99.90
10441;DHT22;5268;49.346;9.522;2023-08-17T15:28:38;29.70;99.90
10441;DHT22;5268;49.346;9.522;2023-08-17T15:33:41;29.70;99.90
10441;DHT22;5268;49.346;9.522;2023-08-17T15:38:43;29.70;99.90
10441;DHT22;5268;49.346;9.522;2023-08-17T15:43:46;29.70;99.90
10441;DHT22;5268;49.346;9.522;2023-08-17T15:48:49;29.60;99.90
10441;DHT22;5268;49.346;9.522;2023-08-17T15:53:51;29.60;99.90
10441;DHT22;5268;49.346;9.522;2023-08-17T15:58:53;29.50;99.90
10441;DHT22;5268;49.346;9.522;2023-08-17T16:03:56;29.50;99.90
10441;DHT22;5268;49.346;9.522;2023-08-17T16:08:58;29.40;99.90
10441;DHT22;5268;49.346;9.522;2023-08-17T16:14:00;29.40;99.90
10441;DHT22;5268;49.346;9.522;2023-08-17T16:19:03;29.40;99.90
10441;DHT22;5268;49.346;9.522;2023-08-17T16:24:05;29.30;99.90
10441;DHT22;5268;49.346;9.522;2023-08-17T16:29:07;29.20;99.90
10441;DHT22;5268;49.346;9.522;2023-08-17T16:34:10;29.10;99.90
10441;DHT22;5268;49.346;9.522;2023-08-17T16:39:12;29.10;99.90
10441;DHT22;5268;49.346;9.522;2023-08-17T16:44:14;29.10;99.90
10441;DHT22;5268;49.346;9.522;2023-08-17T16:49:18;29.00;99.90
10441;DHT22;5268;49.346;9.522;2023-08-17T16:54:20;29.00;99.90
10441;DHT22;5268;49.346;9.522;2023-08-17T16:59:21;28.90;99.90
10441;DHT22;5268;49.346;9.522;2023-08-17T17:04:25;28.90;99.90
10441;DHT22;5268;49.346;9.522;2023-08-17T17:09:27;28.80;99.90
10441;DHT22;5268;49.346;9.522;2023-08-17T17:14:29;28.80;99.90
10441;DHT22;5268;49.346;9.522;2023-08-17T17:19:32;28.70;99.90
10441;DHT22;5268;49.346;9.522;2023-08-17T17:24:34;28.70;99.90
10441;DHT22;5268;49.346;9.522;2023-08-17T17:29:36;28.60;99.90
10441;DHT22;5268;49.346;9.522;2023-08-17T17:34:39;28.50;99.90
10441;DHT22;5268;49.346;9.522;2023-08-17T17:39:41;28.40;99.90
10441;DHT22;5268;49.346;9.522;2023-08-17T17:44:43;28.40;99.90
10441;DHT22;5268;49.346;9.522;2023-08-17T17:49:47;28.40;99.90
10441;DHT22;5268;49.346;9.522;2023-08-17T17:54:49;28.30;99.90
10441;DHT22;5268;49.346;9.522;2023-08-17T17:59:51;28.30;99.90
10441;DHT22;5268;49.346;9.522;2023-08-17T18:04:54;28.20;99.90
10441;DHT22;5268;49.346;9.522;2023-08-17T18:09:56;28.20;99.90
10441;DHT22;5268;49.346;9.522;2023-08-17T18:14:58;28.10;99.90
10441;DHT22;5268;49.346;9.522;2023-08-17T18:20:01;28.00;99.90
10441;DHT22;5268;49.346;9.522;2023-08-17T18:25:07;27.90;99.90
10441;DHT22;5268;49.346;9.522;2023-08-17T18:30:10;27.80;99.90
10441;DHT22;5268;49.346;9.522;2023-08-17T18:35:14;27.70;99.90
10441;DHT22;5268;49.346;9.522;2023-08-17T18:40:16;27.60;99.90
10441;DHT22;5268;49.346;9.522;2023-08-17T18:45:20;27.50;99.90
10441;DHT22;5268;49.346;9.522;2023-08-17T18:50:24;27.40;99.90
10441;DHT22;5268;49.346;9.522;2023-08-17T18:55:28;27.30;99.90
10441;DHT22;5268;49.346;9.522;2023-08-17T19:00:31;27.10;99.90
10441;DHT22;5268;49.346;9.522;2023-08-17T19:05:34;27.00;99.90
10441;DHT22;5268;49.346;9.522;2023-08-17T19:10:36;26.80;99.90
10441;DHT22;5268;49.346;9.522;2023-08-17T19:15:38;26.70;99.90
10441;DHT22;5268;49.346;9.522;2023-08-17T19:20:42;26.60;99.90
10441;DHT22;5268;49.346;9.522;2023-08-17T19:25:44;26.60;99.90
10441;DHT22;5268;49.346;9.522;2023-08-17T19:30:46;26.50;99.90
10441;DHT22;5268;49.346;9.522;2023-08-17T19:35:50;26.40;99.90
10441;DHT22;5268;49.346;9.522;2023-08-17T19:40:52;26.30;99.90
10441;DHT22;5268;49.346;9.522;2023-08-17T19:45:54;26.20;99.90
10441;DHT22;5268;49.346;9.522;2023-08-17T19:50:58;26.10;99.90
10441;DHT22;5268;49.346;9.522;2023-08-17T19:56:00;25.90;99.90
10441;DHT22;5268;49.346;9.522;2023-08-17T20:01:05;25.80;99.90
10441;DHT22;5268;49.346;9.522;2023-08-17T20:06:09;25.80;99.90
10441;DHT22;5268;49.346;9.522;2023-08-17T20:11:12;25.70;99.90
10441;DHT22;5268;49.346;9.522;2023-08-17T20:16:14;25.60;99.90
10441;DHT22;5268;49.346;9.522;2023-08-17T20:21:17;25.50;99.90
10441;DHT22;5268;49.346;9.522;2023-08-17T20:26:19;25.40;99.90
10441;DHT22;5268;49.346;9.522;2023-08-17T20:31:21;25.30;99.90
10441;DHT22;5268;49.346;9.522;2023-08-17T20:36:25;25.20;99.90
10441;DHT22;5268;49.346;9.522;2023-08-17T20:41:27;25.10;99.90
10441;DHT22;5268;49.346;9.522;2023-08-17T20:46:30;25.00;99.90
10441;DHT22;5268;49.346;9.522;2023-08-17T20:51:33;24.80;99.90
10441;DHT22;5268;49.346;9.522;2023-08-17T20:56:35;24.70;99.90
10441;DHT22;5268;49.346;9.522;2023-08-17T21:01:37;24.70;99.90
10441;DHT22;5268;49.346;9.522;2023-08-17T21:06:40;24.60;99.90
10441;DHT22;5268;49.346;9.522;2023-08-17T21:11:43;24.60;99.90
10441;DHT22;5268;49.346;9.522;2023-08-17T21:16:45;24.50;99.90
10441;DHT22;5268;49.346;9.522;2023-08-17T21:21:48;24.50;99.90
10441;DHT22;5268;49.346;9.522;2023-08-17T21:26:50;24.40;99.90
10441;DHT22;5268;49.346;9.522;2023-08-17T21:31:52;24.30;99.90
10441;DHT22;5268;49.346;9.522;2023-08-17T21:36:55;24.20;99.90
10441;DHT22;5268;49.346;9.522;2023-08-17T21:41:57;24.10;99.90
10441;DHT22;5268;49.346;9.522;2023-08-17T21:47:00;24.00;99.90
10441;DHT22;5268;49.346;9.522;2023-08-17T21:52:03;24.00;99.90
